WAT5643 YLOX-YPAD
Flight info
| Callsign | WAT5643 |
|---|---|
| Flight time | 0h 44m |
| Altitude | 3000 |
| Route | AD |
| Aircraft | EC35/L-VGD/C |
Departure
| Time | 2026-04-26 21:30 |
|---|---|
| Airport | Loxton Airport (YLOX) |
Arrival
| Time | 2026-04-26 22:15 |
|---|---|
| Airport | Adelaide International Airport (YPAD) |
| Time | Latitude | Longitude | Altitude | Speed | Heading |
|---|---|---|---|---|---|
| 2026-04-26 21:24 | -34.47838 | 140.66444 | 109 ft | 0 kts | 180° |
| 2026-04-26 21:26 | -34.47839 | 140.66441 | 117 ft | 5 kts | 200° |
| 2026-04-26 21:27 | -34.47677 | 140.66238 | 192 ft | 66 kts | 338° |
| 2026-04-26 21:27 | -34.47152 | 140.66161 | 440 ft | 91 kts | 354° |
| 2026-04-26 21:27 | -34.46421 | 140.66087 | 468 ft | 122 kts | 356° |
| 2026-04-26 21:27 | -34.45568 | 140.65767 | 326 ft | 136 kts | 326° |
| 2026-04-26 21:28 | -34.45031 | 140.64833 | 272 ft | 135 kts | 284° |
| 2026-04-26 21:28 | -34.44840 | 140.63736 | 265 ft | 132 kts | 278° |
| 2026-04-26 21:28 | -34.44657 | 140.62639 | 263 ft | 131 kts | 278° |
| 2026-04-26 21:28 | -34.44477 | 140.61549 | 265 ft | 130 kts | 278° |
| 2026-04-26 21:29 | -34.44300 | 140.60469 | 264 ft | 130 kts | 278° |
| 2026-04-26 21:29 | -34.44123 | 140.59395 | 262 ft | 130 kts | 278° |
| 2026-04-26 21:29 | -34.43946 | 140.58311 | 258 ft | 130 kts | 278° |
| 2026-04-26 21:29 | -34.43767 | 140.57228 | 260 ft | 130 kts | 278° |
| 2026-04-26 21:30 | -34.43661 | 140.56145 | 264 ft | 129 kts | 266° |
| 2026-04-26 21:30 | -34.43825 | 140.55106 | 401 ft | 122 kts | 248° |
| 2026-04-26 21:30 | -34.44120 | 140.54125 | 536 ft | 121 kts | 246° |
| 2026-04-26 21:30 | -34.44399 | 140.53145 | 666 ft | 121 kts | 248° |
| 2026-04-26 21:31 | -34.44659 | 140.52167 | 795 ft | 121 kts | 249° |
| 2026-04-26 21:31 | -34.44914 | 140.51195 | 924 ft | 121 kts | 248° |
| 2026-04-26 21:31 | -34.45178 | 140.50206 | 1057 ft | 122 kts | 247° |
| 2026-04-26 21:31 | -34.45437 | 140.49236 | 1183 ft | 122 kts | 248° |
| 2026-04-26 21:32 | -34.45699 | 140.48235 | 1310 ft | 123 kts | 248° |
| 2026-04-26 21:32 | -34.45953 | 140.47246 | 1439 ft | 123 kts | 248° |
| 2026-04-26 21:32 | -34.46211 | 140.46240 | 1569 ft | 124 kts | 248° |
| 2026-04-26 21:32 | -34.46470 | 140.45244 | 1698 ft | 124 kts | 248° |
| 2026-04-26 21:33 | -34.46732 | 140.44243 | 1828 ft | 124 kts | 248° |
| 2026-04-26 21:33 | -34.46988 | 140.43251 | 1955 ft | 124 kts | 249° |
| 2026-04-26 21:33 | -34.47243 | 140.42253 | 2083 ft | 124 kts | 249° |
| 2026-04-26 21:33 | -34.47500 | 140.41255 | 2212 ft | 124 kts | 249° |
| 2026-04-26 21:34 | -34.47761 | 140.40242 | 2343 ft | 124 kts | 249° |
| 2026-04-26 21:34 | -34.48018 | 140.39247 | 2446 ft | 126 kts | 249° |
| 2026-04-26 21:34 | -34.48293 | 140.38194 | 2458 ft | 131 kts | 249° |
| 2026-04-26 21:34 | -34.48567 | 140.37132 | 2460 ft | 132 kts | 250° |
| 2026-04-26 21:35 | -34.48837 | 140.36067 | 2461 ft | 133 kts | 250° |
| 2026-04-26 21:35 | -34.49113 | 140.34990 | 2460 ft | 133 kts | 251° |
| 2026-04-26 21:35 | -34.49389 | 140.33905 | 2462 ft | 133 kts | 251° |
| 2026-04-26 21:35 | -34.49667 | 140.32823 | 2463 ft | 133 kts | 251° |
| 2026-04-26 21:36 | -34.49945 | 140.31752 | 2464 ft | 132 kts | 251° |
| 2026-04-26 21:36 | -34.50223 | 140.30672 | 2465 ft | 132 kts | 250° |
| 2026-04-26 21:36 | -34.50501 | 140.29604 | 2466 ft | 133 kts | 250° |
| 2026-04-26 21:36 | -34.50777 | 140.28540 | 2466 ft | 133 kts | 251° |
| 2026-04-26 21:37 | -34.51057 | 140.27452 | 2465 ft | 133 kts | 250° |
| 2026-04-26 21:37 | -34.51334 | 140.26382 | 2463 ft | 133 kts | 251° |
| 2026-04-26 21:37 | -34.51613 | 140.25296 | 2463 ft | 133 kts | 250° |
| 2026-04-26 21:37 | -34.51894 | 140.24210 | 2465 ft | 133 kts | 250° |
| 2026-04-26 21:38 | -34.52172 | 140.23131 | 2466 ft | 133 kts | 250° |
| 2026-04-26 21:38 | -34.52454 | 140.22044 | 2465 ft | 133 kts | 250° |
| 2026-04-26 21:38 | -34.52731 | 140.20972 | 2466 ft | 133 kts | 250° |
| 2026-04-26 21:38 | -34.53006 | 140.19885 | 2466 ft | 134 kts | 251° |
| 2026-04-26 21:39 | -34.53282 | 140.18803 | 2467 ft | 133 kts | 251° |
| 2026-04-26 21:39 | -34.53560 | 140.17717 | 2467 ft | 133 kts | 250° |
| 2026-04-26 21:39 | -34.53838 | 140.16638 | 2468 ft | 134 kts | 250° |
| 2026-04-26 21:39 | -34.54120 | 140.15547 | 2472 ft | 133 kts | 250° |
| 2026-04-26 21:40 | -34.54400 | 140.14455 | 2471 ft | 133 kts | 251° |
| 2026-04-26 21:40 | -34.54674 | 140.13362 | 2476 ft | 136 kts | 251° |
| 2026-04-26 21:40 | -34.54956 | 140.12247 | 2472 ft | 138 kts | 250° |
| 2026-04-26 21:40 | -34.55247 | 140.11128 | 2471 ft | 138 kts | 250° |
| 2026-04-26 21:41 | -34.55542 | 140.09996 | 2471 ft | 138 kts | 250° |
| 2026-04-26 21:41 | -34.55832 | 140.08882 | 2472 ft | 137 kts | 250° |
| 2026-04-26 21:41 | -34.56126 | 140.07748 | 2472 ft | 138 kts | 250° |
| 2026-04-26 21:41 | -34.56415 | 140.06625 | 2473 ft | 138 kts | 250° |
| 2026-04-26 21:42 | -34.56702 | 140.05505 | 2474 ft | 137 kts | 250° |
| 2026-04-26 21:42 | -34.56989 | 140.04387 | 2475 ft | 137 kts | 250° |
| 2026-04-26 21:42 | -34.57275 | 140.03267 | 2477 ft | 137 kts | 250° |
| 2026-04-26 21:42 | -34.57560 | 140.02145 | 2477 ft | 137 kts | 250° |
| 2026-04-26 21:43 | -34.57851 | 140.01009 | 2477 ft | 137 kts | 249° |
| 2026-04-26 21:43 | -34.58140 | 139.99887 | 2477 ft | 137 kts | 250° |
| 2026-04-26 21:43 | -34.58434 | 139.98740 | 2476 ft | 138 kts | 249° |
| 2026-04-26 21:43 | -34.58723 | 139.97606 | 2476 ft | 137 kts | 251° |
| 2026-04-26 21:44 | -34.59008 | 139.96471 | 2476 ft | 137 kts | 250° |
| 2026-04-26 21:44 | -34.59296 | 139.95331 | 2476 ft | 137 kts | 250° |
| 2026-04-26 21:44 | -34.59578 | 139.94218 | 2475 ft | 137 kts | 250° |
| 2026-04-26 21:44 | -34.59869 | 139.93074 | 2474 ft | 137 kts | 250° |
| 2026-04-26 21:45 | -34.60156 | 139.91948 | 2474 ft | 138 kts | 250° |
| 2026-04-26 21:45 | -34.60444 | 139.90816 | 2474 ft | 138 kts | 249° |
| 2026-04-26 21:45 | -34.60735 | 139.89679 | 2474 ft | 138 kts | 249° |
| 2026-04-26 21:45 | -34.61026 | 139.88547 | 2474 ft | 138 kts | 249° |
| 2026-04-26 21:46 | -34.61319 | 139.87395 | 2475 ft | 138 kts | 249° |
| 2026-04-26 21:46 | -34.61612 | 139.86253 | 2476 ft | 138 kts | 249° |
| 2026-04-26 21:46 | -34.61902 | 139.85104 | 2478 ft | 138 kts | 250° |
| 2026-04-26 21:46 | -34.62190 | 139.83958 | 2478 ft | 138 kts | 250° |
| 2026-04-26 21:47 | -34.62479 | 139.82803 | 2477 ft | 138 kts | 250° |
| 2026-04-26 21:47 | -34.62766 | 139.81651 | 2478 ft | 138 kts | 251° |
| 2026-04-26 21:47 | -34.63052 | 139.80504 | 2478 ft | 138 kts | 250° |
| 2026-04-26 21:47 | -34.63341 | 139.79353 | 2477 ft | 138 kts | 250° |
| 2026-04-26 21:48 | -34.63630 | 139.78204 | 2477 ft | 138 kts | 250° |
| 2026-04-26 21:48 | -34.63920 | 139.77069 | 2478 ft | 137 kts | 250° |
| 2026-04-26 21:48 | -34.64214 | 139.75920 | 2478 ft | 137 kts | 250° |
| 2026-04-26 21:48 | -34.64502 | 139.74785 | 2478 ft | 137 kts | 250° |
| 2026-04-26 21:49 | -34.64790 | 139.73653 | 2477 ft | 138 kts | 250° |
| 2026-04-26 21:49 | -34.65081 | 139.72513 | 2479 ft | 138 kts | 250° |
| 2026-04-26 21:49 | -34.65371 | 139.71343 | 2478 ft | 138 kts | 251° |
| 2026-04-26 21:49 | -34.65657 | 139.70189 | 2479 ft | 138 kts | 250° |
| 2026-04-26 21:50 | -34.65942 | 139.69055 | 2479 ft | 138 kts | 250° |
| 2026-04-26 21:50 | -34.66233 | 139.67900 | 2479 ft | 138 kts | 250° |
| 2026-04-26 21:50 | -34.66515 | 139.66774 | 2479 ft | 138 kts | 250° |
| 2026-04-26 21:50 | -34.66801 | 139.65649 | 2479 ft | 137 kts | 250° |
| 2026-04-26 21:51 | -34.67079 | 139.64546 | 2478 ft | 138 kts | 250° |
| 2026-04-26 21:51 | -34.67368 | 139.63406 | 2480 ft | 137 kts | 250° |
| 2026-04-26 21:51 | -34.67659 | 139.62256 | 2479 ft | 137 kts | 250° |
| 2026-04-26 21:51 | -34.67937 | 139.61147 | 2479 ft | 137 kts | 250° |
| 2026-04-26 21:52 | -34.68216 | 139.60036 | 2479 ft | 138 kts | 250° |
| 2026-04-26 21:52 | -34.68507 | 139.58897 | 2479 ft | 138 kts | 250° |
| 2026-04-26 21:52 | -34.68798 | 139.57742 | 2478 ft | 138 kts | 251° |
| 2026-04-26 21:52 | -34.69085 | 139.56575 | 2479 ft | 138 kts | 251° |
| 2026-04-26 21:53 | -34.69373 | 139.55394 | 2479 ft | 138 kts | 251° |
| 2026-04-26 21:53 | -34.69659 | 139.54240 | 2480 ft | 138 kts | 251° |
| 2026-04-26 21:53 | -34.69946 | 139.53076 | 2479 ft | 138 kts | 251° |
| 2026-04-26 21:53 | -34.70237 | 139.51897 | 2481 ft | 138 kts | 251° |
| 2026-04-26 21:54 | -34.70527 | 139.50742 | 2479 ft | 138 kts | 251° |
| 2026-04-26 21:54 | -34.70815 | 139.49577 | 2479 ft | 137 kts | 251° |
| 2026-04-26 21:54 | -34.71102 | 139.48412 | 2476 ft | 138 kts | 251° |
| 2026-04-26 21:54 | -34.71390 | 139.47250 | 2474 ft | 137 kts | 251° |
| 2026-04-26 21:55 | -34.71681 | 139.46080 | 2472 ft | 137 kts | 251° |
| 2026-04-26 21:55 | -34.71970 | 139.44919 | 2471 ft | 137 kts | 251° |
| 2026-04-26 21:55 | -34.72257 | 139.43759 | 2472 ft | 137 kts | 251° |
| 2026-04-26 21:55 | -34.72544 | 139.42609 | 2472 ft | 138 kts | 251° |
| 2026-04-26 21:56 | -34.72839 | 139.41434 | 2471 ft | 137 kts | 251° |
| 2026-04-26 21:56 | -34.73130 | 139.40273 | 2471 ft | 137 kts | 251° |
| 2026-04-26 21:56 | -34.73416 | 139.39108 | 2471 ft | 137 kts | 251° |
| 2026-04-26 21:56 | -34.73705 | 139.37938 | 2472 ft | 137 kts | 251° |
| 2026-04-26 21:57 | -34.73992 | 139.36783 | 2472 ft | 137 kts | 250° |
| 2026-04-26 21:57 | -34.74278 | 139.35649 | 2473 ft | 137 kts | 251° |
| 2026-04-26 21:57 | -34.74567 | 139.34491 | 2474 ft | 137 kts | 251° |
| 2026-04-26 21:57 | -34.74854 | 139.33333 | 2472 ft | 137 kts | 251° |
| 2026-04-26 21:58 | -34.75147 | 139.32167 | 2471 ft | 137 kts | 251° |
| 2026-04-26 21:58 | -34.75441 | 139.30995 | 2472 ft | 137 kts | 251° |
| 2026-04-26 21:58 | -34.75730 | 139.29835 | 2472 ft | 138 kts | 251° |
| 2026-04-26 21:58 | -34.76019 | 139.28659 | 2473 ft | 138 kts | 251° |
| 2026-04-26 21:59 | -34.76310 | 139.27493 | 2471 ft | 138 kts | 252° |
| 2026-04-26 21:59 | -34.76598 | 139.26325 | 2472 ft | 138 kts | 251° |
| 2026-04-26 21:59 | -34.76884 | 139.25157 | 2472 ft | 137 kts | 251° |
| 2026-04-26 21:59 | -34.77172 | 139.23990 | 2472 ft | 137 kts | 251° |
| 2026-04-26 22:00 | -34.77460 | 139.22824 | 2472 ft | 137 kts | 251° |
| 2026-04-26 22:00 | -34.77750 | 139.21675 | 2471 ft | 137 kts | 251° |
| 2026-04-26 22:00 | -34.78041 | 139.20502 | 2472 ft | 137 kts | 251° |
| 2026-04-26 22:00 | -34.78326 | 139.19348 | 2475 ft | 137 kts | 252° |
| 2026-04-26 22:01 | -34.78615 | 139.18185 | 2478 ft | 137 kts | 251° |
| 2026-04-26 22:01 | -34.78905 | 139.17004 | 2471 ft | 137 kts | 252° |
| 2026-04-26 22:01 | -34.79190 | 139.15839 | 2478 ft | 138 kts | 252° |
| 2026-04-26 22:01 | -34.79479 | 139.14674 | 2472 ft | 138 kts | 251° |
| 2026-04-26 22:02 | -34.79767 | 139.13509 | 2475 ft | 138 kts | 252° |
| 2026-04-26 22:02 | -34.80058 | 139.12357 | 2473 ft | 138 kts | 252° |
| 2026-04-26 22:02 | -34.80342 | 139.11218 | 2468 ft | 138 kts | 252° |
| 2026-04-26 22:02 | -34.80629 | 139.10071 | 2471 ft | 137 kts | 251° |
| 2026-04-26 22:03 | -34.80916 | 139.08923 | 2475 ft | 137 kts | 252° |
| 2026-04-26 22:03 | -34.81209 | 139.07759 | 2474 ft | 137 kts | 252° |
| 2026-04-26 22:03 | -34.81504 | 139.06590 | 2472 ft | 137 kts | 252° |
| 2026-04-26 22:03 | -34.81797 | 139.05444 | 2471 ft | 137 kts | 252° |
| 2026-04-26 22:04 | -34.82098 | 139.04282 | 2475 ft | 138 kts | 252° |
| 2026-04-26 22:04 | -34.82402 | 139.03120 | 2470 ft | 138 kts | 252° |
| 2026-04-26 22:04 | -34.82703 | 139.01979 | 2472 ft | 138 kts | 252° |
| 2026-04-26 22:04 | -34.83006 | 139.00829 | 2475 ft | 138 kts | 252° |
| 2026-04-26 22:05 | -34.83309 | 138.99667 | 2470 ft | 138 kts | 251° |
| 2026-04-26 22:05 | -34.83604 | 138.98520 | 2469 ft | 137 kts | 251° |
| 2026-04-26 22:05 | -34.83898 | 138.97365 | 2471 ft | 136 kts | 251° |
| 2026-04-26 22:05 | -34.84189 | 138.96220 | 2472 ft | 137 kts | 252° |
| 2026-04-26 22:06 | -34.84481 | 138.95073 | 2473 ft | 137 kts | 251° |
| 2026-04-26 22:06 | -34.84767 | 138.93944 | 2472 ft | 136 kts | 252° |
| 2026-04-26 22:06 | -34.85055 | 138.92813 | 2477 ft | 136 kts | 252° |
| 2026-04-26 22:06 | -34.85348 | 138.91669 | 2481 ft | 136 kts | 251° |
| 2026-04-26 22:07 | -34.85642 | 138.90524 | 2485 ft | 137 kts | 252° |
| 2026-04-26 22:07 | -34.85934 | 138.89395 | 2485 ft | 137 kts | 252° |
| 2026-04-26 22:07 | -34.86229 | 138.88254 | 2488 ft | 137 kts | 252° |
| 2026-04-26 22:07 | -34.86505 | 138.87099 | 2485 ft | 137 kts | 253° |
| 2026-04-26 22:08 | -34.86771 | 138.85936 | 2486 ft | 137 kts | 253° |
| 2026-04-26 22:08 | -34.87033 | 138.84784 | 2470 ft | 138 kts | 253° |
| 2026-04-26 22:08 | -34.87292 | 138.83626 | 2332 ft | 143 kts | 253° |
| 2026-04-26 22:08 | -34.87552 | 138.82439 | 2222 ft | 143 kts | 253° |
| 2026-04-26 22:09 | -34.87804 | 138.81255 | 2179 ft | 140 kts | 253° |
| 2026-04-26 22:09 | -34.88050 | 138.80086 | 2106 ft | 142 kts | 253° |
| 2026-04-26 22:09 | -34.88307 | 138.78905 | 2074 ft | 142 kts | 253° |
| 2026-04-26 22:09 | -34.88570 | 138.77731 | 2059 ft | 141 kts | 252° |
| 2026-04-26 22:10 | -34.88836 | 138.76541 | 1989 ft | 144 kts | 252° |
| 2026-04-26 22:10 | -34.89100 | 138.75349 | 1964 ft | 144 kts | 252° |
| 2026-04-26 22:10 | -34.89367 | 138.74139 | 1834 ft | 147 kts | 252° |
| 2026-04-26 22:10 | -34.89628 | 138.72942 | 1790 ft | 143 kts | 252° |
| 2026-04-26 22:11 | -34.89887 | 138.71753 | 1789 ft | 142 kts | 252° |
| 2026-04-26 22:11 | -34.90147 | 138.70555 | 1787 ft | 140 kts | 253° |
| 2026-04-26 22:11 | -34.90404 | 138.69383 | 1781 ft | 139 kts | 252° |
| 2026-04-26 22:11 | -34.90657 | 138.68225 | 1783 ft | 139 kts | 252° |
| 2026-04-26 22:12 | -34.90915 | 138.67050 | 1731 ft | 142 kts | 252° |
| 2026-04-26 22:12 | -34.91181 | 138.65848 | 1598 ft | 146 kts | 251° |
| 2026-04-26 22:12 | -34.91461 | 138.64641 | 1470 ft | 147 kts | 251° |
| 2026-04-26 22:12 | -34.91736 | 138.63457 | 1348 ft | 147 kts | 251° |
| 2026-04-26 22:13 | -34.92017 | 138.62250 | 1221 ft | 146 kts | 251° |
| 2026-04-26 22:13 | -34.92295 | 138.61057 | 1095 ft | 146 kts | 251° |
| 2026-04-26 22:13 | -34.92588 | 138.59830 | 969 ft | 145 kts | 251° |
| 2026-04-26 22:13 | -34.92880 | 138.58614 | 839 ft | 145 kts | 251° |
| 2026-04-26 22:14 | -34.93167 | 138.57413 | 709 ft | 145 kts | 251° |
| 2026-04-26 22:14 | -34.93449 | 138.56232 | 585 ft | 144 kts | 251° |
| 2026-04-26 22:14 | -34.93744 | 138.55051 | 401 ft | 139 kts | 246° |
| 2026-04-26 22:14 | -34.93977 | 138.54005 | 161 ft | 110 kts | 247° |
| 2026-04-26 22:15 | -34.94224 | 138.53189 | 117 ft | 94 kts | 239° |
| 2026-04-26 22:15 | -34.94603 | 138.52611 | 164 ft | 74 kts | 207° |
| 2026-04-26 22:15 | -34.94784 | 138.52188 | 128 ft | 34 kts | 212° |
| 2026-04-26 22:15 | -34.94823 | 138.52188 | 40 ft | 3 kts | 157° |
| 2026-04-26 22:16 | -34.94835 | 138.52196 | 27 ft | 0 kts | 163° |